sensor_id;sensor_type;location;lat;lon;timestamp;temperature;humidity
13446;DHT22;6795;51.232;3.764;2023-02-12T00:01:25;7.70;99.90
13446;DHT22;6795;51.232;3.764;2023-02-12T00:03:55;7.70;99.90
13446;DHT22;6795;51.232;3.764;2023-02-12T00:06:23;7.60;99.90
13446;DHT22;6795;51.232;3.764;2023-02-12T00:08:53;7.60;99.90
13446;DHT22;6795;51.232;3.764;2023-02-12T00:11:25;7.50;99.90
13446;DHT22;6795;51.232;3.764;2023-02-12T00:13:54;7.50;99.90
13446;DHT22;6795;51.232;3.764;2023-02-12T00:16:24;7.50;99.90
13446;DHT22;6795;51.232;3.764;2023-02-12T00:18:55;7.40;99.90
13446;DHT22;6795;51.232;3.764;2023-02-12T00:21:24;7.40;99.90
13446;DHT22;6795;51.232;3.764;2023-02-12T00:23:52;7.40;99.90
13446;DHT22;6795;51.232;3.764;2023-02-12T00:26:22;7.30;99.90
13446;DHT22;6795;51.232;3.764;2023-02-12T00:28:53;7.30;99.90
13446;DHT22;6795;51.232;3.764;2023-02-12T00:31:23;7.30;99.90
13446;DHT22;6795;51.232;3.764;2023-02-12T00:33:52;7.40;99.90
13446;DHT22;6795;51.232;3.764;2023-02-12T00:36:22;7.30;99.90
13446;DHT22;6795;51.232;3.764;2023-02-12T00:38:52;7.30;99.90
13446;DHT22;6795;51.232;3.764;2023-02-12T00:41:21;7.40;99.90
13446;DHT22;6795;51.232;3.764;2023-02-12T00:43:52;7.40;99.90
13446;DHT22;6795;51.232;3.764;2023-02-12T00:46:20;7.40;99.90
13446;DHT22;6795;51.232;3.764;2023-02-12T00:48:49;7.40;99.90
13446;DHT22;6795;51.232;3.764;2023-02-12T00:51:17;7.40;99.90
13446;DHT22;6795;51.232;3.764;2023-02-12T00:53:46;7.40;99.90
13446;DHT22;6795;51.232;3.764;2023-02-12T00:56:14;7.40;99.90
13446;DHT22;6795;51.232;3.764;2023-02-12T00:58:42;7.40;99.90
13446;DHT22;6795;51.232;3.764;2023-02-12T01:01:12;7.50;99.90
13446;DHT22;6795;51.232;3.764;2023-02-12T01:03:41;7.50;99.90
13446;DHT22;6795;51.232;3.764;2023-02-12T01:06:09;7.50;99.90
13446;DHT22;6795;51.232;3.764;2023-02-12T01:08:38;7.50;99.90
13446;DHT22;6795;51.232;3.764;2023-02-12T01:11:06;7.40;99.90
13446;DHT22;6795;51.232;3.764;2023-02-12T01:13:35;7.40;99.90
13446;DHT22;6795;51.232;3.764;2023-02-12T01:16:05;7.40;99.90
13446;DHT22;6795;51.232;3.764;2023-02-12T01:18:37;7.30;99.90
13446;DHT22;6795;51.232;3.764;2023-02-12T01:21:10;7.20;99.90
13446;DHT22;6795;51.232;3.764;2023-02-12T01:23:39;7.20;99.90
13446;DHT22;6795;51.232;3.764;2023-02-12T01:26:08;7.40;99.90
13446;DHT22;6795;51.232;3.764;2023-02-12T01:28:38;7.40;99.90
13446;DHT22;6795;51.232;3.764;2023-02-12T01:31:09;7.30;99.90
13446;DHT22;6795;51.232;3.764;2023-02-12T01:33:39;7.30;99.90
13446;DHT22;6795;51.232;3.764;2023-02-12T01:36:09;7.30;99.90
13446;DHT22;6795;51.232;3.764;2023-02-12T01:38:38;7.40;99.90
13446;DHT22;6795;51.232;3.764;2023-02-12T01:41:08;7.30;99.90
13446;DHT22;6795;51.232;3.764;2023-02-12T01:43:38;7.30;99.90
13446;DHT22;6795;51.232;3.764;2023-02-12T01:46:07;7.30;99.90
13446;DHT22;6795;51.232;3.764;2023-02-12T01:48:40;7.40;99.90
13446;DHT22;6795;51.232;3.764;2023-02-12T01:51:12;7.30;99.90
13446;DHT22;6795;51.232;3.764;2023-02-12T01:53:46;7.30;99.90
13446;DHT22;6795;51.232;3.764;2023-02-12T01:56:16;7.30;99.90
13446;DHT22;6795;51.232;3.764;2023-02-12T01:58:46;7.30;99.90
13446;DHT22;6795;51.232;3.764;2023-02-12T02:01:17;7.20;99.90
13446;DHT22;6795;51.232;3.764;2023-02-12T02:03:49;7.20;99.90
13446;DHT22;6795;51.232;3.764;2023-02-12T02:06:21;7.10;99.90
13446;DHT22;6795;51.232;3.764;2023-02-12T02:08:52;7.20;99.90
13446;DHT22;6795;51.232;3.764;2023-02-12T02:11:20;7.20;99.90
13446;DHT22;6795;51.232;3.764;2023-02-12T02:14:07;7.20;99.90
13446;DHT22;6795;51.232;3.764;2023-02-12T02:17:00;7.20;99.90
13446;DHT22;6795;51.232;3.764;2023-02-12T02:19:43;7.20;99.90
13446;DHT22;6795;51.232;3.764;2023-02-12T02:22:25;7.20;99.90
13446;DHT22;6795;51.232;3.764;2023-02-12T02:25:30;7.10;99.90
13446;DHT22;6795;51.232;3.764;2023-02-12T02:28:19;7.10;99.90
13446;DHT22;6795;51.232;3.764;2023-02-12T02:30:55;7.20;99.90
13446;DHT22;6795;51.232;3.764;2023-02-12T02:33:32;7.20;99.90
13446;DHT22;6795;51.232;3.764;2023-02-12T02:36:13;7.20;99.90
13446;DHT22;6795;51.232;3.764;2023-02-12T02:38:46;7.20;99.90
13446;DHT22;6795;51.232;3.764;2023-02-12T02:41:20;7.20;99.90
13446;DHT22;6795;51.232;3.764;2023-02-12T02:43:54;7.20;99.90
13446;DHT22;6795;51.232;3.764;2023-02-12T02:46:31;7.20;99.90
13446;DHT22;6795;51.232;3.764;2023-02-12T02:49:04;7.10;99.90
13446;DHT22;6795;51.232;3.764;2023-02-12T02:51:36;7.10;99.90
13446;DHT22;6795;51.232;3.764;2023-02-12T02:54:12;7.00;99.90
13446;DHT22;6795;51.232;3.764;2023-02-12T02:56:45;7.10;99.90
13446;DHT22;6795;51.232;3.764;2023-02-12T02:59:17;7.10;99.90
13446;DHT22;6795;51.232;3.764;2023-02-12T03:01:50;7.00;99.90
13446;DHT22;6795;51.232;3.764;2023-02-12T03:04:22;7.10;99.90
13446;DHT22;6795;51.232;3.764;2023-02-12T03:06:57;7.00;99.90
13446;DHT22;6795;51.232;3.764;2023-02-12T03:09:30;7.00;99.90
13446;DHT22;6795;51.232;3.764;2023-02-12T03:12:04;7.00;99.90
13446;DHT22;6795;51.232;3.764;2023-02-12T03:14:37;7.00;99.90
13446;DHT22;6795;51.232;3.764;2023-02-12T03:17:11;7.00;99.90
13446;DHT22;6795;51.232;3.764;2023-02-12T03:19:43;7.10;99.90
13446;DHT22;6795;51.232;3.764;2023-02-12T03:22:16;7.10;99.90
13446;DHT22;6795;51.232;3.764;2023-02-12T03:24:48;7.10;99.90
13446;DHT22;6795;51.232;3.764;2023-02-12T03:27:20;7.10;99.90
13446;DHT22;6795;51.232;3.764;2023-02-12T03:29:51;7.00;99.90
13446;DHT22;6795;51.232;3.764;2023-02-12T03:32:28;7.00;99.90
13446;DHT22;6795;51.232;3.764;2023-02-12T03:35:07;7.00;99.90
13446;DHT22;6795;51.232;3.764;2023-02-12T03:37:40;7.00;99.90
13446;DHT22;6795;51.232;3.764;2023-02-12T03:40:15;7.00;99.90
13446;DHT22;6795;51.232;3.764;2023-02-12T03:42:50;7.00;99.90
13446;DHT22;6795;51.232;3.764;2023-02-12T03:45:29;7.00;99.90
13446;DHT22;6795;51.232;3.764;2023-02-12T03:48:08;7.00;99.90
13446;DHT22;6795;51.232;3.764;2023-02-12T03:50:50;7.00;99.90
13446;DHT22;6795;51.232;3.764;2023-02-12T03:53:20;6.90;99.90
13446;DHT22;6795;51.232;3.764;2023-02-12T03:55:52;6.90;99.90
13446;DHT22;6795;51.232;3.764;2023-02-12T03:58:27;6.90;99.90
13446;DHT22;6795;51.232;3.764;2023-02-12T04:00:56;6.90;99.90
13446;DHT22;6795;51.232;3.764;2023-02-12T04:03:29;7.00;99.90
13446;DHT22;6795;51.232;3.764;2023-02-12T04:05:57;7.00;99.90
13446;DHT22;6795;51.232;3.764;2023-02-12T04:08:28;7.00;99.90
13446;DHT22;6795;51.232;3.764;2023-02-12T04:11:05;7.00;99.90
13446;DHT22;6795;51.232;3.764;2023-02-12T04:13:41;7.10;99.90
13446;DHT22;6795;51.232;3.764;2023-02-12T04:16:21;7.00;99.90
13446;DHT22;6795;51.232;3.764;2023-02-12T04:18:54;7.00;99.90
13446;DHT22;6795;51.232;3.764;2023-02-12T04:21:37;7.00;99.90
13446;DHT22;6795;51.232;3.764;2023-02-12T04:24:16;7.00;99.90
13446;DHT22;6795;51.232;3.764;2023-02-12T04:26:52;7.00;99.90
13446;DHT22;6795;51.232;3.764;2023-02-12T04:29:27;6.90;99.90
13446;DHT22;6795;51.232;3.764;2023-02-12T04:32:04;6.90;99.90
13446;DHT22;6795;51.232;3.764;2023-02-12T04:34:41;6.90;99.90
13446;DHT22;6795;51.232;3.764;2023-02-12T04:37:17;6.90;99.90
13446;DHT22;6795;51.232;3.764;2023-02-12T04:39:47;7.10;99.90
13446;DHT22;6795;51.232;3.764;2023-02-12T04:42:45;7.00;99.90
13446;DHT22;6795;51.232;3.764;2023-02-12T04:45:17;6.90;99.90
13446;DHT22;6795;51.232;3.764;2023-02-12T04:47:47;6.90;99.90
13446;DHT22;6795;51.232;3.764;2023-02-12T04:50:18;6.90;99.90
13446;DHT22;6795;51.232;3.764;2023-02-12T04:52:47;6.90;99.90
13446;DHT22;6795;51.232;3.764;2023-02-12T04:55:15;6.90;99.90
13446;DHT22;6795;51.232;3.764;2023-02-12T04:57:44;6.90;99.90
13446;DHT22;6795;51.232;3.764;2023-02-12T05:00:13;6.90;99.90
13446;DHT22;6795;51.232;3.764;2023-02-12T05:02:42;7.00;99.90
13446;DHT22;6795;51.232;3.764;2023-02-12T05:05:10;6.90;99.90
13446;DHT22;6795;51.232;3.764;2023-02-12T05:07:40;6.80;99.90
13446;DHT22;6795;51.232;3.764;2023-02-12T05:10:09;6.80;99.90
13446;DHT22;6795;51.232;3.764;2023-02-12T05:12:38;6.80;99.90
13446;DHT22;6795;51.232;3.764;2023-02-12T05:15:07;6.80;99.90
13446;DHT22;6795;51.232;3.764;2023-02-12T05:17:35;6.70;99.90
13446;DHT22;6795;51.232;3.764;2023-02-12T05:20:05;6.80;99.90
13446;DHT22;6795;51.232;3.764;2023-02-12T05:22:34;6.80;99.90
13446;DHT22;6795;51.232;3.764;2023-02-12T05:25:04;6.70;99.90
13446;DHT22;6795;51.232;3.764;2023-02-12T05:27:33;6.70;99.90
13446;DHT22;6795;51.232;3.764;2023-02-12T05:30:03;6.70;99.90
13446;DHT22;6795;51.232;3.764;2023-02-12T05:32:31;6.80;99.90
13446;DHT22;6795;51.232;3.764;2023-02-12T05:35:00;6.70;99.90
13446;DHT22;6795;51.232;3.764;2023-02-12T05:37:28;6.70;99.90
13446;DHT22;6795;51.232;3.764;2023-02-12T05:39:57;6.70;99.90
13446;DHT22;6795;51.232;3.764;2023-02-12T05:42:28;6.70;99.90
13446;DHT22;6795;51.232;3.764;2023-02-12T05:44:56;6.90;99.90
13446;DHT22;6795;51.232;3.764;2023-02-12T05:47:26;6.90;99.90
13446;DHT22;6795;51.232;3.764;2023-02-12T05:49:55;6.80;99.90
13446;DHT22;6795;51.232;3.764;2023-02-12T05:52:23;6.80;99.90
13446;DHT22;6795;51.232;3.764;2023-02-12T05:54:51;6.70;99.90
13446;DHT22;6795;51.232;3.764;2023-02-12T05:57:20;6.70;99.90
13446;DHT22;6795;51.232;3.764;2023-02-12T05:59:50;6.70;99.90
13446;DHT22;6795;51.232;3.764;2023-02-12T06:02:18;6.70;99.90
13446;DHT22;6795;51.232;3.764;2023-02-12T06:04:47;6.70;99.90
13446;DHT22;6795;51.232;3.764;2023-02-12T06:07:15;6.70;99.90
13446;DHT22;6795;51.232;3.764;2023-02-12T06:09:43;6.70;99.90
13446;DHT22;6795;51.232;3.764;2023-02-12T06:12:12;6.90;99.90
13446;DHT22;6795;51.232;3.764;2023-02-12T06:14:40;6.90;99.90
13446;DHT22;6795;51.232;3.764;2023-02-12T06:17:10;7.00;99.90
13446;DHT22;6795;51.232;3.764;2023-02-12T06:19:39;7.00;99.90
13446;DHT22;6795;51.232;3.764;2023-02-12T06:22:07;7.00;99.90
13446;DHT22;6795;51.232;3.764;2023-02-12T06:24:36;7.20;99.90
13446;DHT22;6795;51.232;3.764;2023-02-12T06:27:04;7.30;99.90
13446;DHT22;6795;51.232;3.764;2023-02-12T06:29:33;7.40;99.90
13446;DHT22;6795;51.232;3.764;2023-02-12T06:32:01;7.40;99.90
13446;DHT22;6795;51.232;3.764;2023-02-12T06:34:31;7.40;99.90
13446;DHT22;6795;51.232;3.764;2023-02-12T06:37:00;7.30;99.90
13446;DHT22;6795;51.232;3.764;2023-02-12T06:39:28;7.30;99.90
13446;DHT22;6795;51.232;3.764;2023-02-12T06:41:56;7.20;99.90
13446;DHT22;6795;51.232;3.764;2023-02-12T06:44:25;7.30;99.90
13446;DHT22;6795;51.232;3.764;2023-02-12T06:46:53;7.40;99.90
13446;DHT22;6795;51.232;3.764;2023-02-12T06:49:24;7.50;99.90
13446;DHT22;6795;51.232;3.764;2023-02-12T06:51:53;7.50;99.90
13446;DHT22;6795;51.232;3.764;2023-02-12T06:54:22;7.50;99.90
13446;DHT22;6795;51.232;3.764;2023-02-12T06:56:50;7.40;99.90
13446;DHT22;6795;51.232;3.764;2023-02-12T06:59:18;7.40;99.90
13446;DHT22;6795;51.232;3.764;2023-02-12T07:01:47;7.30;99.90
13446;DHT22;6795;51.232;3.764;2023-02-12T07:04:16;7.30;99.90
13446;DHT22;6795;51.232;3.764;2023-02-12T07:06:45;7.30;99.90
13446;DHT22;6795;51.232;3.764;2023-02-12T07:09:14;7.30;99.90
13446;DHT22;6795;51.232;3.764;2023-02-12T07:11:43;7.30;99.90
13446;DHT22;6795;51.232;3.764;2023-02-12T07:14:13;7.30;99.90
13446;DHT22;6795;51.232;3.764;2023-02-12T07:16:42;7.30;99.90
13446;DHT22;6795;51.232;3.764;2023-02-12T07:19:12;7.40;99.90
13446;DHT22;6795;51.232;3.764;2023-02-12T07:21:42;7.30;99.90
13446;DHT22;6795;51.232;3.764;2023-02-12T07:24:11;7.40;99.90
13446;DHT22;6795;51.232;3.764;2023-02-12T07:26:41;7.40;99.90
13446;DHT22;6795;51.232;3.764;2023-02-12T07:29:10;7.40;99.90
13446;DHT22;6795;51.232;3.764;2023-02-12T07:31:39;7.40;99.90
13446;DHT22;6795;51.232;3.764;2023-02-12T07:34:09;7.50;99.90
13446;DHT22;6795;51.232;3.764;2023-02-12T07:36:38;7.50;99.90
13446;DHT22;6795;51.232;3.764;2023-02-12T07:39:06;7.50;99.90
13446;DHT22;6795;51.232;3.764;2023-02-12T07:41:35;7.50;99.90
13446;DHT22;6795;51.232;3.764;2023-02-12T07:44:06;7.50;99.90
13446;DHT22;6795;51.232;3.764;2023-02-12T07:46:37;7.60;99.90
13446;DHT22;6795;51.232;3.764;2023-02-12T07:49:10;7.70;99.90
13446;DHT22;6795;51.232;3.764;2023-02-12T07:51:40;7.70;99.90
13446;DHT22;6795;51.232;3.764;2023-02-12T07:54:09;7.70;99.90
13446;DHT22;6795;51.232;3.764;2023-02-12T07:56:40;7.70;99.90
13446;DHT22;6795;51.232;3.764;2023-02-12T07:59:12;7.60;99.90
13446;DHT22;6795;51.232;3.764;2023-02-12T08:01:44;7.60;99.90
13446;DHT22;6795;51.232;3.764;2023-02-12T08:04:15;7.60;99.90
13446;DHT22;6795;51.232;3.764;2023-02-12T08:06:45;7.60;99.90
13446;DHT22;6795;51.232;3.764;2023-02-12T08:09:15;7.70;99.90
13446;DHT22;6795;51.232;3.764;2023-02-12T08:11:44;7.70;99.90
13446;DHT22;6795;51.232;3.764;2023-02-12T08:14:16;7.70;99.90
13446;DHT22;6795;51.232;3.764;2023-02-12T08:16:46;7.70;99.90
13446;DHT22;6795;51.232;3.764;2023-02-12T08:19:18;7.70;99.90
13446;DHT22;6795;51.232;3.764;2023-02-12T08:21:53;7.70;99.90
13446;DHT22;6795;51.232;3.764;2023-02-12T08:24:22;7.80;99.90
13446;DHT22;6795;51.232;3.764;2023-02-12T08:26:51;7.90;99.90
13446;DHT22;6795;51.232;3.764;2023-02-12T08:29:22;7.90;99.90
13446;DHT22;6795;51.232;3.764;2023-02-12T08:31:55;7.90;99.90
13446;DHT22;6795;51.232;3.764;2023-02-12T08:34:25;8.00;99.90
13446;DHT22;6795;51.232;3.764;2023-02-12T08:36:55;8.00;99.90
13446;DHT22;6795;51.232;3.764;2023-02-12T08:39:25;7.90;99.90
13446;DHT22;6795;51.232;3.764;2023-02-12T08:41:54;8.00;99.90
13446;DHT22;6795;51.232;3.764;2023-02-12T08:44:25;7.90;99.90
13446;DHT22;6795;51.232;3.764;2023-02-12T08:46:53;7.90;99.90
13446;DHT22;6795;51.232;3.764;2023-02-12T08:49:24;7.80;99.90
13446;DHT22;6795;51.232;3.764;2023-02-12T08:51:54;7.90;99.90
13446;DHT22;6795;51.232;3.764;2023-02-12T08:54:24;8.00;99.90
13446;DHT22;6795;51.232;3.764;2023-02-12T08:56:55;8.10;99.90
13446;DHT22;6795;51.232;3.764;2023-02-12T08:59:25;8.20;99.90
13446;DHT22;6795;51.232;3.764;2023-02-12T09:01:54;8.30;99.90
13446;DHT22;6795;51.232;3.764;2023-02-12T09:04:24;8.20;99.90
13446;DHT22;6795;51.232;3.764;2023-02-12T09:06:54;8.30;99.90
13446;DHT22;6795;51.232;3.764;2023-02-12T09:09:22;8.30;99.90
13446;DHT22;6795;51.232;3.764;2023-02-12T09:11:51;8.50;99.90
13446;DHT22;6795;51.232;3.764;2023-02-12T09:14:19;8.50;99.90
13446;DHT22;6795;51.232;3.764;2023-02-12T09:16:52;8.70;99.90
13446;DHT22;6795;51.232;3.764;2023-02-12T09:19:21;8.80;99.90
13446;DHT22;6795;51.232;3.764;2023-02-12T09:21:51;8.80;99.90
13446;DHT22;6795;51.232;3.764;2023-02-12T09:24:22;8.90;99.90
13446;DHT22;6795;51.232;3.764;2023-02-12T09:26:50;9.00;99.90
13446;DHT22;6795;51.232;3.764;2023-02-12T09:29:19;9.00;99.90
13446;DHT22;6795;51.232;3.764;2023-02-12T09:31:47;9.10;99.90
13446;DHT22;6795;51.232;3.764;2023-02-12T09:34:18;9.20;99.90
13446;DHT22;6795;51.232;3.764;2023-02-12T09:36:46;9.20;99.90
13446;DHT22;6795;51.232;3.764;2023-02-12T09:39:15;9.30;99.90
13446;DHT22;6795;51.232;3.764;2023-02-12T09:44:55;8.90;99.90
13446;DHT22;6795;51.232;3.764;2023-02-12T09:47:31;8.80;99.90
13446;DHT22;6795;51.232;3.764;2023-02-12T09:50:12;8.80;99.90
13446;DHT22;6795;51.232;3.764;2023-02-12T09:52:44;8.90;99.90
13446;DHT22;6795;51.232;3.764;2023-02-12T09:55:14;9.00;99.90
13446;DHT22;6795;51.232;3.764;2023-02-12T09:57:44;9.10;99.90
13446;DHT22;6795;51.232;3.764;2023-02-12T10:00:16;9.10;99.90
13446;DHT22;6795;51.232;3.764;2023-02-12T10:02:45;9.00;99.90
13446;DHT22;6795;51.232;3.764;2023-02-12T10:05:21;9.00;99.90
13446;DHT22;6795;51.232;3.764;2023-02-12T10:08:09;9.10;99.90
13446;DHT22;6795;51.232;3.764;2023-02-12T10:10:48;9.20;99.90
13446;DHT22;6795;51.232;3.764;2023-02-12T10:13:29;9.20;99.90
13446;DHT22;6795;51.232;3.764;2023-02-12T10:16:09;9.10;99.90
13446;DHT22;6795;51.232;3.764;2023-02-12T10:21:46;9.00;99.90
13446;DHT22;6795;51.232;3.764;2023-02-12T10:24:31;9.00;99.90
13446;DHT22;6795;51.232;3.764;2023-02-12T10:27:08;9.10;99.90
13446;DHT22;6795;51.232;3.764;2023-02-12T10:29:40;9.10;99.90
13446;DHT22;6795;51.232;3.764;2023-02-12T10:32:15;9.10;99.90
13446;DHT22;6795;51.232;3.764;2023-02-12T10:34:45;9.30;99.90
13446;DHT22;6795;51.232;3.764;2023-02-12T10:37:26;9.20;99.90
13446;DHT22;6795;51.232;3.764;2023-02-12T10:40:03;9.00;99.90
13446;DHT22;6795;51.232;3.764;2023-02-12T10:42:37;9.00;99.90
13446;DHT22;6795;51.232;3.764;2023-02-12T10:45:12;9.10;99.90
13446;DHT22;6795;51.232;3.764;2023-02-12T10:47:41;9.30;99.90
13446;DHT22;6795;51.232;3.764;2023-02-12T10:50:19;9.30;99.90
13446;DHT22;6795;51.232;3.764;2023-02-12T10:52:53;9.30;99.90
13446;DHT22;6795;51.232;3.764;2023-02-12T10:55:25;9.20;99.90
13446;DHT22;6795;51.232;3.764;2023-02-12T10:57:54;9.10;99.90
13446;DHT22;6795;51.232;3.764;2023-02-12T11:00:26;9.00;99.90
13446;DHT22;6795;51.232;3.764;2023-02-12T11:03:02;9.10;99.90
13446;DHT22;6795;51.232;3.764;2023-02-12T11:05:34;9.10;99.90
13446;DHT22;6795;51.232;3.764;2023-02-12T11:08:05;9.10;99.90
13446;DHT22;6795;51.232;3.764;2023-02-12T11:10:37;9.20;99.90
13446;DHT22;6795;51.232;3.764;2023-02-12T11:13:21;9.30;99.90
13446;DHT22;6795;51.232;3.764;2023-02-12T11:15:50;9.50;99.90
13446;DHT22;6795;51.232;3.764;2023-02-12T11:18:22;9.70;99.90
13446;DHT22;6795;51.232;3.764;2023-02-12T11:20:54;9.80;99.90
13446;DHT22;6795;51.232;3.764;2023-02-12T11:23:27;10.20;99.90
13446;DHT22;6795;51.232;3.764;2023-02-12T11:25:59;10.30;99.90
13446;DHT22;6795;51.232;3.764;2023-02-12T11:28:30;10.40;99.90
13446;DHT22;6795;51.232;3.764;2023-02-12T11:31:01;10.50;99.90
13446;DHT22;6795;51.232;3.764;2023-02-12T11:33:32;10.70;99.90
13446;DHT22;6795;51.232;3.764;2023-02-12T11:36:04;11.00;99.90
13446;DHT22;6795;51.232;3.764;2023-02-12T11:38:38;10.80;99.90
13446;DHT22;6795;51.232;3.764;2023-02-12T11:41:22;10.40;99.90
13446;DHT22;6795;51.232;3.764;2023-02-12T11:43:52;10.60;99.90
13446;DHT22;6795;51.232;3.764;2023-02-12T11:46:22;10.80;99.90
13446;DHT22;6795;51.232;3.764;2023-02-12T11:48:53;10.80;99.90
13446;DHT22;6795;51.232;3.764;2023-02-12T11:51:25;11.00;99.90
13446;DHT22;6795;51.232;3.764;2023-02-12T11:53:59;11.00;99.90
13446;DHT22;6795;51.232;3.764;2023-02-12T11:56:40;10.40;99.90
13446;DHT22;6795;51.232;3.764;2023-02-12T11:59:16;10.30;99.90
13446;DHT22;6795;51.232;3.764;2023-02-12T12:01:49;10.10;99.90
13446;DHT22;6795;51.232;3.764;2023-02-12T12:04:22;10.30;99.90
13446;DHT22;6795;51.232;3.764;2023-02-12T12:06:58;10.30;99.90
13446;DHT22;6795;51.232;3.764;2023-02-12T12:09:36;10.30;99.90
13446;DHT22;6795;51.232;3.764;2023-02-12T12:12:09;10.60;99.90
13446;DHT22;6795;51.232;3.764;2023-02-12T12:14:43;10.50;99.90
13446;DHT22;6795;51.232;3.764;2023-02-12T12:17:39;10.50;99.90
13446;DHT22;6795;51.232;3.764;2023-02-12T12:20:31;10.40;99.90
13446;DHT22;6795;51.232;3.764;2023-02-12T12:23:06;10.50;99.90
13446;DHT22;6795;51.232;3.764;2023-02-12T12:25:44;10.60;99.90
13446;DHT22;6795;51.232;3.764;2023-02-12T12:28:32;10.70;99.90
13446;DHT22;6795;51.232;3.764;2023-02-12T12:31:08;10.70;99.90
13446;DHT22;6795;51.232;3.764;2023-02-12T12:33:42;10.50;99.90
13446;DHT22;6795;51.232;3.764;2023-02-12T12:39:30;10.80;99.90
13446;DHT22;6795;51.232;3.764;2023-02-12T12:42:37;10.70;99.90
13446;DHT22;6795;51.232;3.764;2023-02-12T12:45:27;10.80;99.90
13446;DHT22;6795;51.232;3.764;2023-02-12T12:48:08;10.40;99.90
13446;DHT22;6795;51.232;3.764;2023-02-12T12:50:54;10.60;99.90
13446;DHT22;6795;51.232;3.764;2023-02-12T12:53:41;10.40;99.90
13446;DHT22;6795;51.232;3.764;2023-02-12T12:56:24;10.10;99.90
13446;DHT22;6795;51.232;3.764;2023-02-12T12:59:12;10.10;99.90
13446;DHT22;6795;51.232;3.764;2023-02-12T13:05:17;10.10;99.90
13446;DHT22;6795;51.232;3.764;2023-02-12T13:07:56;10.50;99.90
13446;DHT22;6795;51.232;3.764;2023-02-12T13:10:31;10.20;99.90
13446;DHT22;6795;51.232;3.764;2023-02-12T13:13:12;10.40;99.90
13446;DHT22;6795;51.232;3.764;2023-02-12T13:15:49;10.60;99.90
13446;DHT22;6795;51.232;3.764;2023-02-12T13:18:30;10.70;99.90
13446;DHT22;6795;51.232;3.764;2023-02-12T13:21:07;10.80;99.90
13446;DHT22;6795;51.232;3.764;2023-02-12T13:23:41;10.40;99.90
13446;DHT22;6795;51.232;3.764;2023-02-12T13:26:16;10.40;99.90
13446;DHT22;6795;51.232;3.764;2023-02-12T13:28:50;10.80;99.90
13446;DHT22;6795;51.232;3.764;2023-02-12T13:31:22;11.20;99.90
13446;DHT22;6795;51.232;3.764;2023-02-12T13:34:03;11.40;99.90
13446;DHT22;6795;51.232;3.764;2023-02-12T13:36:35;11.60;99.90
13446;DHT22;6795;51.232;3.764;2023-02-12T13:39:12;11.80;99.90
13446;DHT22;6795;51.232;3.764;2023-02-12T13:41:46;11.80;99.90
13446;DHT22;6795;51.232;3.764;2023-02-12T13:44:24;11.90;99.90
13446;DHT22;6795;51.232;3.764;2023-02-12T13:47:07;11.70;99.90
13446;DHT22;6795;51.232;3.764;2023-02-12T13:49:43;11.80;99.90
13446;DHT22;6795;51.232;3.764;2023-02-12T13:52:23;11.20;99.90
13446;DHT22;6795;51.232;3.764;2023-02-12T13:54:59;11.10;99.90
13446;DHT22;6795;51.232;3.764;2023-02-12T13:57:32;11.20;99.90
13446;DHT22;6795;51.232;3.764;2023-02-12T14:00:00;11.20;99.90
13446;DHT22;6795;51.232;3.764;2023-02-12T14:02:46;11.30;99.90
13446;DHT22;6795;51.232;3.764;2023-02-12T14:05:20;11.00;99.90
13446;DHT22;6795;51.232;3.764;2023-02-12T14:07:53;11.10;99.90
13446;DHT22;6795;51.232;3.764;2023-02-12T14:10:28;11.20;99.90
13446;DHT22;6795;51.232;3.764;2023-02-12T14:13:08;11.40;99.90
13446;DHT22;6795;51.232;3.764;2023-02-12T14:15:40;11.30;99.90
13446;DHT22;6795;51.232;3.764;2023-02-12T14:18:30;10.70;99.90
13446;DHT22;6795;51.232;3.764;2023-02-12T14:27:35;10.70;99.90
13446;DHT22;6795;51.232;3.764;2023-02-12T14:30:28;10.60;99.90
13446;DHT22;6795;51.232;3.764;2023-02-12T14:33:08;10.60;99.90
13446;DHT22;6795;51.232;3.764;2023-02-12T14:35:39;10.70;99.90
13446;DHT22;6795;51.232;3.764;2023-02-12T14:41:38;10.20;99.90
13446;DHT22;6795;51.232;3.764;2023-02-12T14:44:36;10.00;99.90
13446;DHT22;6795;51.232;3.764;2023-02-12T14:47:12;9.90;99.90
13446;DHT22;6795;51.232;3.764;2023-02-12T14:49:44;9.90;99.90
13446;DHT22;6795;51.232;3.764;2023-02-12T14:52:18;9.80;99.90
13446;DHT22;6795;51.232;3.764;2023-02-12T14:54:51;9.70;99.90
13446;DHT22;6795;51.232;3.764;2023-02-12T14:57:24;9.70;99.90
13446;DHT22;6795;51.232;3.764;2023-02-12T14:59:55;9.70;99.90
13446;DHT22;6795;51.232;3.764;2023-02-12T15:02:27;9.80;99.90
13446;DHT22;6795;51.232;3.764;2023-02-12T15:05:00;9.90;99.90
13446;DHT22;6795;51.232;3.764;2023-02-12T15:07:34;10.00;99.90
13446;DHT22;6795;51.232;3.764;2023-02-12T15:10:07;10.00;99.90
13446;DHT22;6795;51.232;3.764;2023-02-12T15:12:44;10.00;99.90
13446;DHT22;6795;51.232;3.764;2023-02-12T15:15:17;9.70;99.90
13446;DHT22;6795;51.232;3.764;2023-02-12T15:17:54;9.50;99.90
13446;DHT22;6795;51.232;3.764;2023-02-12T15:20:28;9.40;99.90
13446;DHT22;6795;51.232;3.764;2023-02-12T15:23:00;9.30;99.90
13446;DHT22;6795;51.232;3.764;2023-02-12T15:25:31;9.30;99.90
13446;DHT22;6795;51.232;3.764;2023-02-12T15:28:03;9.40;99.90
13446;DHT22;6795;51.232;3.764;2023-02-12T15:30:35;9.50;99.90
13446;DHT22;6795;51.232;3.764;2023-02-12T15:33:05;9.50;99.90
13446;DHT22;6795;51.232;3.764;2023-02-12T15:35:38;9.50;99.90
13446;DHT22;6795;51.232;3.764;2023-02-12T15:38:18;9.60;99.90
13446;DHT22;6795;51.232;3.764;2023-02-12T15:40:53;9.60;99.90
13446;DHT22;6795;51.232;3.764;2023-02-12T15:43:26;9.60;99.90
13446;DHT22;6795;51.232;3.764;2023-02-12T15:45:56;9.50;99.90
13446;DHT22;6795;51.232;3.764;2023-02-12T15:48:29;9.40;99.90
13446;DHT22;6795;51.232;3.764;2023-02-12T15:51:04;9.40;99.90
13446;DHT22;6795;51.232;3.764;2023-02-12T15:53:37;9.30;99.90
13446;DHT22;6795;51.232;3.764;2023-02-12T15:56:12;9.30;99.90
13446;DHT22;6795;51.232;3.764;2023-02-12T15:58:47;9.30;99.90
13446;DHT22;6795;51.232;3.764;2023-02-12T16:01:18;9.20;99.90
13446;DHT22;6795;51.232;3.764;2023-02-12T16:03:49;9.10;99.90
13446;DHT22;6795;51.232;3.764;2023-02-12T16:06:19;9.10;99.90
13446;DHT22;6795;51.232;3.764;2023-02-12T16:08:53;9.10;99.90
13446;DHT22;6795;51.232;3.764;2023-02-12T16:11:23;9.00;99.90
13446;DHT22;6795;51.232;3.764;2023-02-12T16:13:55;9.00;99.90
13446;DHT22;6795;51.232;3.764;2023-02-12T16:16:28;9.10;99.90
13446;DHT22;6795;51.232;3.764;2023-02-12T16:19:16;9.00;99.90
13446;DHT22;6795;51.232;3.764;2023-02-12T16:21:47;8.90;99.90
13446;DHT22;6795;51.232;3.764;2023-02-12T16:24:27;8.90;99.90
13446;DHT22;6795;51.232;3.764;2023-02-12T16:26:57;9.00;99.90
13446;DHT22;6795;51.232;3.764;2023-02-12T16:29:29;8.90;99.90
13446;DHT22;6795;51.232;3.764;2023-02-12T16:32:01;8.90;99.90
13446;DHT22;6795;51.232;3.764;2023-02-12T16:34:33;8.80;99.90
13446;DHT22;6795;51.232;3.764;2023-02-12T16:37:02;8.80;99.90
13446;DHT22;6795;51.232;3.764;2023-02-12T16:42:37;8.80;99.90
13446;DHT22;6795;51.232;3.764;2023-02-12T16:45:34;8.80;99.90
13446;DHT22;6795;51.232;3.764;2023-02-12T16:50:53;8.70;99.90
13446;DHT22;6795;51.232;3.764;2023-02-12T16:53:40;8.70;99.90
13446;DHT22;6795;51.232;3.764;2023-02-12T16:56:15;8.70;99.90
13446;DHT22;6795;51.232;3.764;2023-02-12T16:58:47;8.70;99.90
13446;DHT22;6795;51.232;3.764;2023-02-12T17:01:20;8.50;99.90
13446;DHT22;6795;51.232;3.764;2023-02-12T17:03:49;8.50;99.90
13446;DHT22;6795;51.232;3.764;2023-02-12T17:06:20;8.50;99.90